Weather History for KBAX - October, 2013

Change the Weather History Date:

Sunday, October 27, 2013

  Actual Average (KP58) Record (KP58)
Temperature  
Mean Temperature 39 °F -  
Max Temperature 48 °F 53 °F 96 °F (2000)
Min Temperature 30 °F 40 °F 35 °F (2014)
Degree Days  
Heating Degree Days 26    
Moisture  
Dew Point 32 °F    
Average Humidity 75    
Maximum Humidity 96    
Minimum Humidity 43    
Precipitation  
Precipitation 0.00 in - - ()
Sea Level Pressure  
Sea Level Pressure 29.97 in    
Wind  
Wind Speed 6 mph (WSW)    
Max Wind Speed 14 mph    
Max Gust Speed 21 mph    
Visibility 10 miles    
Events      
Averages and records for this station are not official NWS values.
T = Trace of Precipitation, MM = Missing Value Source: NWS Daily Summary

Daily Weather History Graph

Daily Weather History Graph

Search for Another Location

Airport or City:

Trip Planner

Search our weather history database for the weather conditions in past years. The results will help you decide how hot, cold, wet, or windy it might be!

Date:

Astronomy

Oct. 27, 2013 Rise Set
Actual Time 8:01 AM EDT 6:29 PM EDT
Civil Twilight 7:32 AM EDT 6:58 PM EDT
Nautical Twilight 6:58 AM EDT 7:32 PM EDT
Astronomical Twilight 6:25 AM EDT 8:05 PM EDT
Moon 12:45 AM EDT (10/27) 2:49 PM EDT (10/27)
Length of Visible Light 11h 26m
Length of Day
10h 27m
Last Quarter, 44% of the Moon is Illuminated
Oct 27
Last Quarter
Nov 3
New
Nov 10
First Quarter
Nov 17
Full
Nov 25
Last Quarter

Hourly Weather History & Observations

Time (EDT) Temp. Windchill Dew Point Humidity Pressure Visibility Wind Dir Wind Speed Gust Speed Precip Events Conditions
12:15 AM 36.9 °F 31.4 °F 32.9 °F 86% 29.93 in 10.0 mi West 6.9 mph - N/A   Scattered Clouds
12:35 AM 36.1 °F 32.3 °F 32.7 °F 87% 29.93 in 10.0 mi West 4.6 mph - N/A   Scattered Clouds
12:55 AM 35.6 °F 30.7 °F 32.5 °F 89% 29.94 in 10.0 mi West 5.8 mph - N/A   Scattered Clouds
1:15 AM 35.6 °F 30.7 °F 32.5 °F 89% 29.95 in 10.0 mi West 5.8 mph - N/A   Scattered Clouds
1:35 AM 35.2 °F 30.3 °F 32.5 °F 90% 29.95 in 10.0 mi West 5.8 mph - N/A   Scattered Clouds
1:55 AM 35.2 °F 30.3 °F 32.7 °F 91% 29.95 in 10.0 mi WNW 5.8 mph - N/A   Clear
2:15 AM 35.6 °F 29.9 °F 32.9 °F 90% 29.95 in 10.0 mi West 6.9 mph - N/A   Clear
2:35 AM 35.2 °F 30.3 °F 32.7 °F 91% 29.95 in 10.0 mi WNW 5.8 mph - N/A   Clear
2:55 AM 34.2 °F 29.0 °F 32.0 °F 92% 29.95 in 10.0 mi West 5.8 mph - N/A   Scattered Clouds
3:14 AM 33.4 °F 30.4 °F 31.8 °F 94% 29.95 in 10.0 mi West 3.5 mph - N/A   Clear
3:35 AM 32.5 °F 29.3 °F 31.1 °F 94% 29.95 in 10.0 mi West 3.5 mph - N/A   Clear
3:55 AM 32.9 °F - 31.6 °F 95% 29.94 in 10.0 mi Calm Calm - N/A   Clear
4:14 AM 30.7 °F - 28.9 °F 93% 29.94 in 10.0 mi Calm Calm - N/A   Clear
4:35 AM 31.5 °F - 30.0 °F 94% 29.94 in 10.0 mi Calm Calm - N/A   Clear
4:55 AM 32.0 °F - 31.1 °F 96% 29.95 in 10.0 mi Calm Calm - N/A   Clear
5:14 AM 32.2 °F 28.9 °F 31.3 °F 96% 29.95 in 10.0 mi WSW 3.5 mph - N/A   Clear
5:35 AM 33.1 °F 28.7 °F 32.0 °F 96% 29.96 in 10.0 mi WSW 4.6 mph - N/A   Mostly Cloudy
5:55 AM 33.4 °F 29.1 °F 32.4 °F 96% 29.96 in 10.0 mi WSW 4.6 mph - N/A   Overcast
6:15 AM 33.4 °F 30.4 °F 32.4 °F 96% 29.96 in 10.0 mi SW 3.5 mph - N/A   Overcast
6:35 AM 34.3 °F 30.2 °F 33.3 °F 96% 29.96 in 10.0 mi SW 4.6 mph - N/A   Overcast
6:55 AM 34.0 °F 29.8 °F 32.9 °F 96% 29.97 in 10.0 mi WSW 4.6 mph - N/A   Mostly Cloudy
7:14 AM 33.6 °F 29.4 °F 32.2 °F 94% 29.97 in 10.0 mi WSW 4.6 mph - N/A   Overcast
7:35 AM 34.0 °F 29.8 °F 32.9 °F 96% 29.98 in 10.0 mi WSW 4.6 mph - N/A   Overcast
7:55 AM 34.3 °F 29.2 °F 32.9 °F 94% 29.98 in 10.0 mi WSW 5.8 mph - N/A   Overcast
8:14 AM 34.7 °F 31.8 °F 33.1 °F 94% 29.98 in 10.0 mi WSW 3.5 mph - N/A   Overcast
8:35 AM 35.2 °F 32.4 °F 33.4 °F 93% 29.99 in 10.0 mi SW 3.5 mph - N/A   Overcast
8:55 AM 36.0 °F 31.1 °F 34.0 °F 93% 30.00 in 10.0 mi SW 5.8 mph - N/A   Overcast
9:14 AM 36.5 °F 32.7 °F 34.5 °F 93% 30.00 in 10.0 mi WSW 4.6 mph - N/A   Overcast
9:35 AM 37.4 °F 33.8 °F 35.1 °F 91% 30.00 in 10.0 mi WSW 4.6 mph - N/A   Overcast
9:55 AM 38.3 °F 33.9 °F 35.6 °F 90% 30.01 in 10.0 mi WSW 5.8 mph - N/A   Overcast
10:15 AM 39.2 °F 35.0 °F 35.8 °F 88% 30.01 in 10.0 mi WSW 5.8 mph - N/A   Overcast
10:35 AM 40.5 °F 35.8 °F 35.6 °F 83% 30.01 in 10.0 mi WSW 6.9 mph - N/A   Overcast
10:55 AM 41.9 °F 37.5 °F 36.0 °F 79% 30.01 in 10.0 mi WSW 6.9 mph - N/A   Overcast
11:15 AM 42.8 °F 37.0 °F 34.7 °F 73% 30.01 in 10.0 mi West 10.4 mph - N/A   Overcast
11:35 AM 43.9 °F 39.3 °F 34.5 °F 70% 30.01 in 10.0 mi WSW 8.1 mph - N/A   Overcast
11:55 AM 43.7 °F 38.6 °F 32.5 °F 65% 30.01 in 10.0 mi WSW 9.2 mph - N/A   Overcast
12:15 PM 44.8 °F 39.9 °F 32.4 °F 62% 30.01 in 10.0 mi WSW 9.2 mph - N/A   Overcast
12:35 PM 45.9 °F 41.7 °F 31.1 °F 56% 30.00 in 10.0 mi WSW 8.1 mph - N/A   Mostly Cloudy
12:54 PM 47.1 °F - 27.1 °F 46% 30.00 in 10.0 mi West 8.1 mph 16.1 mph N/A   Mostly Cloudy
1:15 PM 47.5 °F - 27.3 °F 46% 30.00 in 10.0 mi West 12.7 mph 20.7 mph N/A   Overcast
1:35 PM 48.2 °F - 26.4 °F 43% 29.99 in 10.0 mi West 10.4 mph - N/A   Overcast
1:54 PM 47.1 °F - 25.9 °F 44% 29.98 in 10.0 mi West 13.8 mph 19.6 mph N/A   Overcast
2:15 PM 48.0 °F - 26.8 °F 44% 29.97 in 10.0 mi WNW 10.4 mph 16.1 mph N/A   Overcast
2:35 PM 48.4 °F - 27.3 °F 44% 29.96 in 10.0 mi WSW 9.2 mph - N/A   Mostly Cloudy
2:54 PM 47.5 °F - 28.2 °F 47% 29.96 in 10.0 mi West 8.1 mph 17.3 mph N/A   Overcast
3:15 PM 47.5 °F - 29.7 °F 50% 29.96 in 10.0 mi West 12.7 mph 18.4 mph N/A   Overcast
3:35 PM 47.3 °F - 30.4 °F 52% 29.95 in 10.0 mi SW 12.7 mph - N/A   Overcast
3:54 PM 47.1 °F - 31.5 °F 55% 29.95 in 10.0 mi WSW 11.5 mph - N/A   Overcast
4:15 PM 47.1 °F - 32.0 °F 56% 29.95 in 10.0 mi SW 13.8 mph 17.3 mph N/A   Overcast
4:35 PM 46.9 °F - 32.0 °F 56% 29.95 in 10.0 mi SW 9.2 mph - N/A   Overcast
4:54 PM 47.5 °F - 32.0 °F 55% 29.95 in 10.0 mi SSW 12.7 mph 16.1 mph N/A   Overcast
5:15 PM 47.5 °F - 32.0 °F 55% 29.95 in 10.0 mi SW 10.4 mph - N/A   Overcast
5:35 PM 47.3 °F - 32.0 °F 55% 29.95 in 10.0 mi SSW 9.2 mph - N/A   Overcast
5:55 PM 46.8 °F - 32.2 °F 57% 29.94 in 10.0 mi South 8.1 mph - N/A   Mostly Cloudy
6:15 PM 45.9 °F 41.7 °F 33.3 °F 61% 29.94 in 10.0 mi South 8.1 mph - N/A   Scattered Clouds
6:34 PM 45.5 °F 41.3 °F 33.8 °F 64% 29.94 in 10.0 mi South 8.1 mph - N/A   Clear
6:55 PM 45.7 °F 42.0 °F 33.8 °F 63% 29.94 in 10.0 mi South 6.9 mph - N/A   Clear
7:15 PM 45.5 °F 41.3 °F 34.2 °F 65% 29.94 in 10.0 mi South 8.1 mph - N/A   Clear
7:34 PM 45.0 °F 40.6 °F 33.8 °F 65% 29.93 in 10.0 mi South 8.1 mph - N/A   Scattered Clouds
7:55 PM 44.8 °F 40.4 °F 34.0 °F 66% 29.93 in 10.0 mi South 8.1 mph - N/A   Scattered Clouds
8:14 PM 45.3 °F 41.1 °F 34.2 °F 65% 29.94 in 10.0 mi SSW 8.1 mph - N/A   Mostly Cloudy
8:35 PM 44.6 °F 40.7 °F 34.2 °F 67% 29.94 in 10.0 mi SSW 6.9 mph - N/A   Mostly Cloudy
8:55 PM 44.4 °F 41.2 °F 34.2 °F 67% 29.95 in 10.0 mi SSW 5.8 mph - N/A   Clear
9:14 PM 44.4 °F 40.5 °F 34.7 °F 69% 29.95 in 10.0 mi SSW 6.9 mph - N/A   Mostly Cloudy
9:35 PM 44.6 °F 41.4 °F 34.2 °F 67% 29.96 in 10.0 mi SW 5.8 mph - N/A   Overcast
9:55 PM 44.2 °F 41.8 °F 33.4 °F 66% 29.97 in 10.0 mi SW 4.6 mph - N/A   Overcast
10:14 PM 43.3 °F 40.7 °F 33.3 °F 68% 29.98 in 10.0 mi WSW 4.6 mph - N/A   Mostly Cloudy
10:35 PM 43.0 °F 40.3 °F 33.8 °F 70% 29.99 in 10.0 mi West 4.6 mph - N/A   Overcast
10:55 PM 42.4 °F 39.6 °F 33.3 °F 70% 29.99 in 10.0 mi WSW 4.6 mph - N/A   Overcast
11:14 PM 42.3 °F 40.5 °F 33.1 °F 70% 30.00 in 10.0 mi WSW 3.5 mph - N/A   Overcast
11:35 PM 42.8 °F 41.1 °F 33.4 °F 70% 30.00 in 10.0 mi WSW 3.5 mph - N/A   Overcast
11:55 PM 42.3 °F 40.5 °F 33.3 °F 70% 30.00 in 10.0 mi SW 3.5 mph - N/A   Overcast